sensor_id;sensor_type;location;lat;lon;timestamp;temperature;humidity
23237;DHT22;11787;52.018;8.570;2023-09-19T00:00:20;16.10;99.90
23237;DHT22;11787;52.018;8.570;2023-09-19T00:02:58;16.10;99.90
23237;DHT22;11787;52.018;8.570;2023-09-19T00:05:27;16.10;99.90
23237;DHT22;11787;52.018;8.570;2023-09-19T00:07:56;16.10;99.90
23237;DHT22;11787;52.018;8.570;2023-09-19T00:10:24;16.10;99.90
23237;DHT22;11787;52.018;8.570;2023-09-19T00:12:53;16.10;99.90
23237;DHT22;11787;52.018;8.570;2023-09-19T00:15:23;16.10;99.90
23237;DHT22;11787;52.018;8.570;2023-09-19T00:17:49;16.10;99.90
23237;DHT22;11787;52.018;8.570;2023-09-19T00:20:18;16.10;99.90
23237;DHT22;11787;52.018;8.570;2023-09-19T00:22:44;16.10;99.90
23237;DHT22;11787;52.018;8.570;2023-09-19T00:25:10;16.10;99.90
23237;DHT22;11787;52.018;8.570;2023-09-19T00:27:38;16.00;99.90
23237;DHT22;11787;52.018;8.570;2023-09-19T00:30:11;16.10;99.90
23237;DHT22;11787;52.018;8.570;2023-09-19T00:32:40;16.10;99.90
23237;DHT22;11787;52.018;8.570;2023-09-19T00:35:06;16.10;99.90
23237;DHT22;11787;52.018;8.570;2023-09-19T00:37:33;16.10;99.90
23237;DHT22;11787;52.018;8.570;2023-09-19T00:39:59;16.10;99.90
23237;DHT22;11787;52.018;8.570;2023-09-19T00:42:25;16.10;99.90
23237;DHT22;11787;52.018;8.570;2023-09-19T00:44:51;16.10;99.90
23237;DHT22;11787;52.018;8.570;2023-09-19T00:47:18;16.10;99.90
23237;DHT22;11787;52.018;8.570;2023-09-19T00:49:45;16.10;99.90
23237;DHT22;11787;52.018;8.570;2023-09-19T00:52:16;16.10;99.90
23237;DHT22;11787;52.018;8.570;2023-09-19T00:54:46;16.10;99.90
23237;DHT22;11787;52.018;8.570;2023-09-19T00:57:11;16.10;99.90
23237;DHT22;11787;52.018;8.570;2023-09-19T00:59:37;16.10;99.90
23237;DHT22;11787;52.018;8.570;2023-09-19T01:02:03;16.10;99.90
23237;DHT22;11787;52.018;8.570;2023-09-19T01:04:29;16.10;99.90
23237;DHT22;11787;52.018;8.570;2023-09-19T01:06:55;16.10;99.90
23237;DHT22;11787;52.018;8.570;2023-09-19T01:09:21;16.10;99.90
23237;DHT22;11787;52.018;8.570;2023-09-19T01:11:48;16.10;99.90
23237;DHT22;11787;52.018;8.570;2023-09-19T01:17:30;16.10;99.90
23237;DHT22;11787;52.018;8.570;2023-09-19T01:20:03;16.10;99.90
23237;DHT22;11787;52.018;8.570;2023-09-19T01:30:26;16.00;99.90
23237;DHT22;11787;52.018;8.570;2023-09-19T01:32:53;16.00;99.90
23237;DHT22;11787;52.018;8.570;2023-09-19T01:35:19;16.00;99.90
23237;DHT22;11787;52.018;8.570;2023-09-19T01:37:45;16.10;99.90
23237;DHT22;11787;52.018;8.570;2023-09-19T01:40:15;16.10;99.90
23237;DHT22;11787;52.018;8.570;2023-09-19T01:42:58;16.00;99.90
23237;DHT22;11787;52.018;8.570;2023-09-19T01:45:59;16.00;99.90
23237;DHT22;11787;52.018;8.570;2023-09-19T01:48:38;16.10;99.90
23237;DHT22;11787;52.018;8.570;2023-09-19T01:51:09;16.00;99.90
23237;DHT22;11787;52.018;8.570;2023-09-19T01:54:02;16.10;99.90
23237;DHT22;11787;52.018;8.570;2023-09-19T01:56:34;16.10;99.90
23237;DHT22;11787;52.018;8.570;2023-09-19T01:59:08;16.10;99.90
23237;DHT22;11787;52.018;8.570;2023-09-19T02:01:37;16.10;99.90
23237;DHT22;11787;52.018;8.570;2023-09-19T02:04:03;16.10;99.90
23237;DHT22;11787;52.018;8.570;2023-09-19T02:06:29;16.10;99.90
23237;DHT22;11787;52.018;8.570;2023-09-19T02:08:55;16.00;99.90
23237;DHT22;11787;52.018;8.570;2023-09-19T02:11:21;16.00;99.90
23237;DHT22;11787;52.018;8.570;2023-09-19T02:13:46;16.00;99.90
23237;DHT22;11787;52.018;8.570;2023-09-19T02:16:12;16.00;99.90
23237;DHT22;11787;52.018;8.570;2023-09-19T02:18:38;16.00;99.90
23237;DHT22;11787;52.018;8.570;2023-09-19T02:21:04;16.00;99.90
23237;DHT22;11787;52.018;8.570;2023-09-19T02:23:32;15.90;99.90
23237;DHT22;11787;52.018;8.570;2023-09-19T02:25:59;15.90;99.90
23237;DHT22;11787;52.018;8.570;2023-09-19T02:28:26;15.90;99.90
23237;DHT22;11787;52.018;8.570;2023-09-19T02:30:56;15.90;99.90
23237;DHT22;11787;52.018;8.570;2023-09-19T02:33:22;15.90;99.90
23237;DHT22;11787;52.018;8.570;2023-09-19T02:35:47;15.90;99.90
23237;DHT22;11787;52.018;8.570;2023-09-19T02:38:13;15.90;99.90
23237;DHT22;11787;52.018;8.570;2023-09-19T02:40:40;15.90;99.90
23237;DHT22;11787;52.018;8.570;2023-09-19T02:43:05;15.90;99.90
23237;DHT22;11787;52.018;8.570;2023-09-19T02:45:33;15.90;99.90
23237;DHT22;11787;52.018;8.570;2023-09-19T02:47:59;15.80;99.90
23237;DHT22;11787;52.018;8.570;2023-09-19T02:50:25;15.80;99.90
23237;DHT22;11787;52.018;8.570;2023-09-19T02:52:51;15.80;99.90
23237;DHT22;11787;52.018;8.570;2023-09-19T02:55:18;15.80;99.90
23237;DHT22;11787;52.018;8.570;2023-09-19T02:57:52;15.80;99.90
23237;DHT22;11787;52.018;8.570;2023-09-19T03:00:21;15.70;99.90
23237;DHT22;11787;52.018;8.570;2023-09-19T03:02:52;15.70;99.90
23237;DHT22;11787;52.018;8.570;2023-09-19T03:05:18;15.70;99.90
23237;DHT22;11787;52.018;8.570;2023-09-19T03:07:44;15.60;99.90
23237;DHT22;11787;52.018;8.570;2023-09-19T03:10:12;15.60;99.90
23237;DHT22;11787;52.018;8.570;2023-09-19T03:12:40;15.60;99.90
23237;DHT22;11787;52.018;8.570;2023-09-19T03:15:06;15.60;99.90
23237;DHT22;11787;52.018;8.570;2023-09-19T03:17:34;15.50;99.90
23237;DHT22;11787;52.018;8.570;2023-09-19T03:19:59;15.60;99.90
23237;DHT22;11787;52.018;8.570;2023-09-19T03:22:26;15.50;99.90
23237;DHT22;11787;52.018;8.570;2023-09-19T03:24:52;15.60;99.90
23237;DHT22;11787;52.018;8.570;2023-09-19T03:27:18;15.50;99.90
23237;DHT22;11787;52.018;8.570;2023-09-19T03:29:44;15.50;99.90
23237;DHT22;11787;52.018;8.570;2023-09-19T03:32:10;15.50;99.90
23237;DHT22;11787;52.018;8.570;2023-09-19T03:34:37;15.50;99.90
23237;DHT22;11787;52.018;8.570;2023-09-19T03:37:06;15.50;99.90
23237;DHT22;11787;52.018;8.570;2023-09-19T03:39:32;15.40;99.90
23237;DHT22;11787;52.018;8.570;2023-09-19T03:41:58;15.40;99.90
23237;DHT22;11787;52.018;8.570;2023-09-19T03:44:23;15.40;99.90
23237;DHT22;11787;52.018;8.570;2023-09-19T03:46:49;15.40;99.90
23237;DHT22;11787;52.018;8.570;2023-09-19T03:49:14;15.40;99.90
23237;DHT22;11787;52.018;8.570;2023-09-19T03:51:40;15.30;99.90
23237;DHT22;11787;52.018;8.570;2023-09-19T03:54:07;15.30;99.90
23237;DHT22;11787;52.018;8.570;2023-09-19T03:56:33;15.30;99.90
23237;DHT22;11787;52.018;8.570;2023-09-19T03:58:58;15.20;99.90
23237;DHT22;11787;52.018;8.570;2023-09-19T04:01:24;15.20;99.90
23237;DHT22;11787;52.018;8.570;2023-09-19T04:03:53;15.20;99.90
23237;DHT22;11787;52.018;8.570;2023-09-19T04:06:18;15.20;99.90
23237;DHT22;11787;52.018;8.570;2023-09-19T04:08:44;15.10;99.90
23237;DHT22;11787;52.018;8.570;2023-09-19T04:11:11;15.10;99.90
23237;DHT22;11787;52.018;8.570;2023-09-19T04:13:36;15.10;99.90
23237;DHT22;11787;52.018;8.570;2023-09-19T04:16:03;15.00;99.90
23237;DHT22;11787;52.018;8.570;2023-09-19T04:18:32;15.00;99.90
23237;DHT22;11787;52.018;8.570;2023-09-19T04:20:59;15.00;99.90
23237;DHT22;11787;52.018;8.570;2023-09-19T04:23:28;15.00;99.90
23237;DHT22;11787;52.018;8.570;2023-09-19T04:25:53;15.00;99.90
23237;DHT22;11787;52.018;8.570;2023-09-19T04:28:19;14.90;99.90
23237;DHT22;11787;52.018;8.570;2023-09-19T04:30:45;14.80;99.90
23237;DHT22;11787;52.018;8.570;2023-09-19T04:33:10;14.80;99.90
23237;DHT22;11787;52.018;8.570;2023-09-19T04:35:40;14.90;99.90
23237;DHT22;11787;52.018;8.570;2023-09-19T04:38:08;14.90;99.90
23237;DHT22;11787;52.018;8.570;2023-09-19T04:40:33;14.80;99.90
23237;DHT22;11787;52.018;8.570;2023-09-19T04:42:59;14.80;99.90
23237;DHT22;11787;52.018;8.570;2023-09-19T04:45:28;14.80;99.90
23237;DHT22;11787;52.018;8.570;2023-09-19T04:47:55;14.70;99.90
23237;DHT22;11787;52.018;8.570;2023-09-19T04:50:21;14.70;99.90
23237;DHT22;11787;52.018;8.570;2023-09-19T04:52:51;14.70;99.90
23237;DHT22;11787;52.018;8.570;2023-09-19T04:55:18;14.60;99.90
23237;DHT22;11787;52.018;8.570;2023-09-19T04:57:45;14.60;99.90
23237;DHT22;11787;52.018;8.570;2023-09-19T05:00:18;14.60;99.90
23237;DHT22;11787;52.018;8.570;2023-09-19T05:02:45;14.60;99.90
23237;DHT22;11787;52.018;8.570;2023-09-19T05:05:10;14.60;99.90
23237;DHT22;11787;52.018;8.570;2023-09-19T05:07:37;14.60;99.90
23237;DHT22;11787;52.018;8.570;2023-09-19T05:10:04;14.70;99.90
23237;DHT22;11787;52.018;8.570;2023-09-19T05:12:35;14.60;99.90
23237;DHT22;11787;52.018;8.570;2023-09-19T05:15:02;14.50;99.90
23237;DHT22;11787;52.018;8.570;2023-09-19T05:17:28;14.50;99.90
23237;DHT22;11787;52.018;8.570;2023-09-19T05:19:54;14.50;99.90
23237;DHT22;11787;52.018;8.570;2023-09-19T05:22:19;14.50;99.90
23237;DHT22;11787;52.018;8.570;2023-09-19T05:24:45;14.50;99.90
23237;DHT22;11787;52.018;8.570;2023-09-19T05:27:14;14.50;99.90
23237;DHT22;11787;52.018;8.570;2023-09-19T05:29:43;14.50;99.90
23237;DHT22;11787;52.018;8.570;2023-09-19T05:32:08;14.40;99.90
23237;DHT22;11787;52.018;8.570;2023-09-19T05:34:35;14.40;99.90
23237;DHT22;11787;52.018;8.570;2023-09-19T05:37:01;14.40;99.90
23237;DHT22;11787;52.018;8.570;2023-09-19T05:39:26;14.40;99.90
23237;DHT22;11787;52.018;8.570;2023-09-19T05:41:52;14.30;99.90
23237;DHT22;11787;52.018;8.570;2023-09-19T05:44:17;14.30;99.90
23237;DHT22;11787;52.018;8.570;2023-09-19T05:46:43;14.30;99.90
23237;DHT22;11787;52.018;8.570;2023-09-19T05:49:09;14.30;99.90
23237;DHT22;11787;52.018;8.570;2023-09-19T05:51:34;14.30;99.90
23237;DHT22;11787;52.018;8.570;2023-09-19T05:54:01;14.30;99.90
23237;DHT22;11787;52.018;8.570;2023-09-19T05:56:27;14.30;99.90
23237;DHT22;11787;52.018;8.570;2023-09-19T05:58:52;14.30;99.90
23237;DHT22;11787;52.018;8.570;2023-09-19T06:01:18;14.30;99.90
23237;DHT22;11787;52.018;8.570;2023-09-19T06:03:44;14.30;99.90
23237;DHT22;11787;52.018;8.570;2023-09-19T06:06:10;14.40;99.90
23237;DHT22;11787;52.018;8.570;2023-09-19T06:08:35;14.30;99.90
23237;DHT22;11787;52.018;8.570;2023-09-19T06:11:01;14.40;99.90
23237;DHT22;11787;52.018;8.570;2023-09-19T06:13:29;14.40;99.90
23237;DHT22;11787;52.018;8.570;2023-09-19T06:15:55;14.40;99.90
23237;DHT22;11787;52.018;8.570;2023-09-19T06:18:25;14.40;99.90
23237;DHT22;11787;52.018;8.570;2023-09-19T06:20:51;14.40;99.90
23237;DHT22;11787;52.018;8.570;2023-09-19T06:23:17;14.40;99.90
23237;DHT22;11787;52.018;8.570;2023-09-19T06:25:45;14.50;99.90
23237;DHT22;11787;52.018;8.570;2023-09-19T06:28:10;14.50;99.90
23237;DHT22;11787;52.018;8.570;2023-09-19T06:30:40;14.50;99.90
23237;DHT22;11787;52.018;8.570;2023-09-19T06:33:06;14.60;99.90
23237;DHT22;11787;52.018;8.570;2023-09-19T06:35:33;14.60;99.90
23237;DHT22;11787;52.018;8.570;2023-09-19T06:37:59;14.70;99.90
23237;DHT22;11787;52.018;8.570;2023-09-19T06:40:28;14.70;99.90
23237;DHT22;11787;52.018;8.570;2023-09-19T06:42:56;14.80;99.90
23237;DHT22;11787;52.018;8.570;2023-09-19T06:45:23;14.90;99.90
23237;DHT22;11787;52.018;8.570;2023-09-19T06:47:52;14.90;99.90
23237;DHT22;11787;52.018;8.570;2023-09-19T06:50:22;15.00;99.90
23237;DHT22;11787;52.018;8.570;2023-09-19T06:52:54;15.00;99.90
23237;DHT22;11787;52.018;8.570;2023-09-19T06:55:22;15.00;99.90
23237;DHT22;11787;52.018;8.570;2023-09-19T06:57:53;15.10;99.90
23237;DHT22;11787;52.018;8.570;2023-09-19T07:00:22;15.10;99.90
23237;DHT22;11787;52.018;8.570;2023-09-19T07:03:05;15.10;99.90
23237;DHT22;11787;52.018;8.570;2023-09-19T07:05:34;15.10;99.90
23237;DHT22;11787;52.018;8.570;2023-09-19T07:08:03;15.10;99.90
23237;DHT22;11787;52.018;8.570;2023-09-19T07:10:30;15.10;99.90
23237;DHT22;11787;52.018;8.570;2023-09-19T07:13:05;15.10;99.90
23237;DHT22;11787;52.018;8.570;2023-09-19T07:15:34;15.10;99.90
23237;DHT22;11787;52.018;8.570;2023-09-19T07:18:16;15.10;99.90
23237;DHT22;11787;52.018;8.570;2023-09-19T07:20:45;15.10;99.90
23237;DHT22;11787;52.018;8.570;2023-09-19T07:23:21;15.10;99.90
23237;DHT22;11787;52.018;8.570;2023-09-19T07:25:48;15.00;99.90
23237;DHT22;11787;52.018;8.570;2023-09-19T07:28:15;15.10;99.90
23237;DHT22;11787;52.018;8.570;2023-09-19T07:30:41;15.10;99.90
23237;DHT22;11787;52.018;8.570;2023-09-19T07:33:07;15.10;99.90
23237;DHT22;11787;52.018;8.570;2023-09-19T07:35:32;15.10;99.90
23237;DHT22;11787;52.018;8.570;2023-09-19T07:37:59;15.10;99.90
23237;DHT22;11787;52.018;8.570;2023-09-19T07:40:27;15.10;99.90
23237;DHT22;11787;52.018;8.570;2023-09-19T07:42:55;15.20;99.90
23237;DHT22;11787;52.018;8.570;2023-09-19T07:45:20;15.30;99.90
23237;DHT22;11787;52.018;8.570;2023-09-19T07:47:47;15.30;99.90
23237;DHT22;11787;52.018;8.570;2023-09-19T07:50:16;15.40;99.90
23237;DHT22;11787;52.018;8.570;2023-09-19T07:52:45;15.50;99.90
23237;DHT22;11787;52.018;8.570;2023-09-19T07:55:11;15.50;99.90
23237;DHT22;11787;52.018;8.570;2023-09-19T07:57:37;15.60;99.90
23237;DHT22;11787;52.018;8.570;2023-09-19T08:00:03;15.60;99.90
23237;DHT22;11787;52.018;8.570;2023-09-19T08:02:36;15.60;99.90
23237;DHT22;11787;52.018;8.570;2023-09-19T08:05:03;15.60;99.90
23237;DHT22;11787;52.018;8.570;2023-09-19T08:07:32;15.70;99.90
23237;DHT22;11787;52.018;8.570;2023-09-19T08:09:58;15.80;99.90
23237;DHT22;11787;52.018;8.570;2023-09-19T08:12:24;15.80;99.90
23237;DHT22;11787;52.018;8.570;2023-09-19T08:14:50;15.80;99.90
23237;DHT22;11787;52.018;8.570;2023-09-19T08:17:16;15.80;99.90
23237;DHT22;11787;52.018;8.570;2023-09-19T08:19:42;15.90;99.90
23237;DHT22;11787;52.018;8.570;2023-09-19T08:22:10;15.90;99.90
23237;DHT22;11787;52.018;8.570;2023-09-19T08:24:36;15.90;99.90
23237;DHT22;11787;52.018;8.570;2023-09-19T08:27:04;15.90;99.90
23237;DHT22;11787;52.018;8.570;2023-09-19T08:29:30;16.00;99.90
23237;DHT22;11787;52.018;8.570;2023-09-19T08:31:57;16.00;99.90
23237;DHT22;11787;52.018;8.570;2023-09-19T08:34:23;16.10;99.90
23237;DHT22;11787;52.018;8.570;2023-09-19T08:36:51;16.20;99.90
23237;DHT22;11787;52.018;8.570;2023-09-19T08:39:18;16.30;99.90
23237;DHT22;11787;52.018;8.570;2023-09-19T08:41:44;16.40;99.90
23237;DHT22;11787;52.018;8.570;2023-09-19T08:44:10;16.40;99.90
23237;DHT22;11787;52.018;8.570;2023-09-19T08:46:36;16.50;99.90
23237;DHT22;11787;52.018;8.570;2023-09-19T08:49:04;16.50;99.90
23237;DHT22;11787;52.018;8.570;2023-09-19T08:51:43;16.50;99.90
23237;DHT22;11787;52.018;8.570;2023-09-19T08:54:24;16.60;99.90
23237;DHT22;11787;52.018;8.570;2023-09-19T08:56:53;16.60;99.90
23237;DHT22;11787;52.018;8.570;2023-09-19T08:59:21;16.60;99.90
23237;DHT22;11787;52.018;8.570;2023-09-19T09:01:49;16.50;99.90
23237;DHT22;11787;52.018;8.570;2023-09-19T09:04:19;16.40;99.90
23237;DHT22;11787;52.018;8.570;2023-09-19T09:06:46;16.50;99.90
23237;DHT22;11787;52.018;8.570;2023-09-19T09:09:14;16.60;99.90
23237;DHT22;11787;52.018;8.570;2023-09-19T09:11:40;16.70;99.90
23237;DHT22;11787;52.018;8.570;2023-09-19T09:14:06;16.90;99.90
23237;DHT22;11787;52.018;8.570;2023-09-19T09:16:36;16.90;99.90
23237;DHT22;11787;52.018;8.570;2023-09-19T09:19:02;16.90;99.90
23237;DHT22;11787;52.018;8.570;2023-09-19T09:21:28;17.00;99.90
23237;DHT22;11787;52.018;8.570;2023-09-19T09:23:54;16.90;99.90
23237;DHT22;11787;52.018;8.570;2023-09-19T09:29:04;16.90;99.90
23237;DHT22;11787;52.018;8.570;2023-09-19T09:31:30;16.90;99.90
23237;DHT22;11787;52.018;8.570;2023-09-19T09:33:56;17.10;99.90
23237;DHT22;11787;52.018;8.570;2023-09-19T09:36:52;17.10;99.90
23237;DHT22;11787;52.018;8.570;2023-09-19T09:39:30;17.10;99.90
23237;DHT22;11787;52.018;8.570;2023-09-19T09:41:57;17.10;99.90
23237;DHT22;11787;52.018;8.570;2023-09-19T09:44:24;17.20;99.90
23237;DHT22;11787;52.018;8.570;2023-09-19T09:46:50;17.40;99.90
23237;DHT22;11787;52.018;8.570;2023-09-19T09:49:26;17.60;99.90
23237;DHT22;11787;52.018;8.570;2023-09-19T09:52:07;17.80;99.90
23237;DHT22;11787;52.018;8.570;2023-09-19T09:55:01;17.90;99.90
23237;DHT22;11787;52.018;8.570;2023-09-19T09:57:32;17.90;99.90
23237;DHT22;11787;52.018;8.570;2023-09-19T09:59:59;18.00;99.90
23237;DHT22;11787;52.018;8.570;2023-09-19T10:02:45;18.10;99.90
23237;DHT22;11787;52.018;8.570;2023-09-19T10:05:16;18.20;99.90
23237;DHT22;11787;52.018;8.570;2023-09-19T10:07:49;18.20;99.90
23237;DHT22;11787;52.018;8.570;2023-09-19T10:10:36;18.40;99.90
23237;DHT22;11787;52.018;8.570;2023-09-19T10:13:10;18.40;99.90
23237;DHT22;11787;52.018;8.570;2023-09-19T10:15:51;18.40;99.90
23237;DHT22;11787;52.018;8.570;2023-09-19T10:18:21;18.30;99.90
23237;DHT22;11787;52.018;8.570;2023-09-19T10:20:47;18.50;99.90
23237;DHT22;11787;52.018;8.570;2023-09-19T10:23:15;18.60;99.90
23237;DHT22;11787;52.018;8.570;2023-09-19T10:25:48;18.40;99.90
23237;DHT22;11787;52.018;8.570;2023-09-19T10:28:16;18.50;99.90
23237;DHT22;11787;52.018;8.570;2023-09-19T10:30:43;18.50;99.90
23237;DHT22;11787;52.018;8.570;2023-09-19T10:33:13;18.60;99.90
23237;DHT22;11787;52.018;8.570;2023-09-19T10:35:45;18.90;99.90
23237;DHT22;11787;52.018;8.570;2023-09-19T10:38:12;18.90;99.90
23237;DHT22;11787;52.018;8.570;2023-09-19T10:40:39;19.00;99.90
23237;DHT22;11787;52.018;8.570;2023-09-19T10:43:21;18.80;99.90
23237;DHT22;11787;52.018;8.570;2023-09-19T10:45:50;18.70;99.90
23237;DHT22;11787;52.018;8.570;2023-09-19T10:48:18;18.60;99.90
23237;DHT22;11787;52.018;8.570;2023-09-19T10:51:19;18.60;99.90
23237;DHT22;11787;52.018;8.570;2023-09-19T10:53:51;18.90;99.90
23237;DHT22;11787;52.018;8.570;2023-09-19T10:56:24;19.20;99.90
23237;DHT22;11787;52.018;8.570;2023-09-19T10:59:08;19.30;99.90
23237;DHT22;11787;52.018;8.570;2023-09-19T11:01:49;19.30;99.90
23237;DHT22;11787;52.018;8.570;2023-09-19T11:04:35;19.60;99.90
23237;DHT22;11787;52.018;8.570;2023-09-19T11:07:02;19.70;99.90
23237;DHT22;11787;52.018;8.570;2023-09-19T11:12:12;19.70;99.90
23237;DHT22;11787;52.018;8.570;2023-09-19T11:14:39;19.60;99.90
23237;DHT22;11787;52.018;8.570;2023-09-19T11:30:37;19.10;99.90
23237;DHT22;11787;52.018;8.570;2023-09-19T11:36:05;19.20;99.90
23237;DHT22;11787;52.018;8.570;2023-09-19T11:41:39;19.50;99.90
23237;DHT22;11787;52.018;8.570;2023-09-19T11:46:52;20.10;99.90
23237;DHT22;11787;52.018;8.570;2023-09-19T11:49:18;20.10;99.90
23237;DHT22;11787;52.018;8.570;2023-09-19T11:51:52;20.20;99.90
23237;DHT22;11787;52.018;8.570;2023-09-19T11:54:17;20.40;99.90
23237;DHT22;11787;52.018;8.570;2023-09-19T11:56:52;20.50;99.90
23237;DHT22;11787;52.018;8.570;2023-09-19T11:59:21;20.40;99.90
23237;DHT22;11787;52.018;8.570;2023-09-19T12:01:54;20.60;99.90
23237;DHT22;11787;52.018;8.570;2023-09-19T12:04:39;20.50;99.90
23237;DHT22;11787;52.018;8.570;2023-09-19T12:07:06;20.20;99.90
23237;DHT22;11787;52.018;8.570;2023-09-19T12:09:39;20.20;99.90
23237;DHT22;11787;52.018;8.570;2023-09-19T12:12:06;20.20;99.90
23237;DHT22;11787;52.018;8.570;2023-09-19T12:14:31;19.90;99.90
23237;DHT22;11787;52.018;8.570;2023-09-19T12:16:58;19.90;99.90
23237;DHT22;11787;52.018;8.570;2023-09-19T12:19:24;19.90;99.90
23237;DHT22;11787;52.018;8.570;2023-09-19T12:24:25;19.80;99.90
23237;DHT22;11787;52.018;8.570;2023-09-19T12:26:59;19.70;99.90
23237;DHT22;11787;52.018;8.570;2023-09-19T12:29:29;19.70;99.90
23237;DHT22;11787;52.018;8.570;2023-09-19T12:31:56;19.80;99.90
23237;DHT22;11787;52.018;8.570;2023-09-19T12:34:29;19.90;99.90
23237;DHT22;11787;52.018;8.570;2023-09-19T12:39:36;20.20;99.90
23237;DHT22;11787;52.018;8.570;2023-09-19T12:42:01;20.00;99.90
23237;DHT22;11787;52.018;8.570;2023-09-19T12:44:29;20.00;99.90
23237;DHT22;11787;52.018;8.570;2023-09-19T12:46:55;20.10;99.90
23237;DHT22;11787;52.018;8.570;2023-09-19T12:49:24;20.00;99.90
23237;DHT22;11787;52.018;8.570;2023-09-19T12:51:50;20.20;99.90
23237;DHT22;11787;52.018;8.570;2023-09-19T12:54:20;20.20;99.90
23237;DHT22;11787;52.018;8.570;2023-09-19T12:56:47;20.30;99.90
23237;DHT22;11787;52.018;8.570;2023-09-19T12:59:15;20.10;99.90
23237;DHT22;11787;52.018;8.570;2023-09-19T13:01:42;20.10;99.90
23237;DHT22;11787;52.018;8.570;2023-09-19T13:04:12;20.10;99.90
23237;DHT22;11787;52.018;8.570;2023-09-19T13:06:40;20.10;99.90
23237;DHT22;11787;52.018;8.570;2023-09-19T13:09:08;20.20;99.90
23237;DHT22;11787;52.018;8.570;2023-09-19T13:11:38;20.00;99.90
23237;DHT22;11787;52.018;8.570;2023-09-19T13:16:56;19.90;99.90
23237;DHT22;11787;52.018;8.570;2023-09-19T13:22:00;20.00;99.90
23237;DHT22;11787;52.018;8.570;2023-09-19T13:24:26;20.10;99.90
23237;DHT22;11787;52.018;8.570;2023-09-19T13:26:53;20.20;99.90
23237;DHT22;11787;52.018;8.570;2023-09-19T13:29:19;20.20;99.90
23237;DHT22;11787;52.018;8.570;2023-09-19T13:31:51;20.30;99.90
23237;DHT22;11787;52.018;8.570;2023-09-19T13:34:20;20.30;99.90
23237;DHT22;11787;52.018;8.570;2023-09-19T13:36:46;20.20;99.90
23237;DHT22;11787;52.018;8.570;2023-09-19T13:39:17;20.10;99.90
23237;DHT22;11787;52.018;8.570;2023-09-19T13:41:48;20.10;99.90
23237;DHT22;11787;52.018;8.570;2023-09-19T13:44:15;20.00;99.90
23237;DHT22;11787;52.018;8.570;2023-09-19T13:46:43;20.00;99.90
23237;DHT22;11787;52.018;8.570;2023-09-19T13:49:11;20.10;99.90
23237;DHT22;11787;52.018;8.570;2023-09-19T13:51:36;20.20;99.90
23237;DHT22;11787;52.018;8.570;2023-09-19T13:54:02;20.30;99.90
23237;DHT22;11787;52.018;8.570;2023-09-19T13:56:27;20.40;99.90
23237;DHT22;11787;52.018;8.570;2023-09-19T13:58:53;20.40;99.90
23237;DHT22;11787;52.018;8.570;2023-09-19T14:01:19;20.40;99.90
23237;DHT22;11787;52.018;8.570;2023-09-19T14:03:44;20.40;99.90
23237;DHT22;11787;52.018;8.570;2023-09-19T14:06:12;20.30;99.90
23237;DHT22;11787;52.018;8.570;2023-09-19T14:08:38;20.30;99.90
23237;DHT22;11787;52.018;8.570;2023-09-19T14:11:07;20.20;99.90
23237;DHT22;11787;52.018;8.570;2023-09-19T14:13:32;20.10;99.90
23237;DHT22;11787;52.018;8.570;2023-09-19T14:16:02;20.20;99.90
23237;DHT22;11787;52.018;8.570;2023-09-19T14:18:29;20.30;99.90
23237;DHT22;11787;52.018;8.570;2023-09-19T14:20:55;20.30;99.90
23237;DHT22;11787;52.018;8.570;2023-09-19T14:23:20;20.20;99.90
23237;DHT22;11787;52.018;8.570;2023-09-19T14:25:46;20.10;99.90
23237;DHT22;11787;52.018;8.570;2023-09-19T14:28:11;20.00;99.90
23237;DHT22;11787;52.018;8.570;2023-09-19T14:30:37;20.10;99.90
23237;DHT22;11787;52.018;8.570;2023-09-19T14:33:03;20.20;99.90
23237;DHT22;11787;52.018;8.570;2023-09-19T14:35:29;20.30;99.90
23237;DHT22;11787;52.018;8.570;2023-09-19T14:37:55;20.30;99.90
23237;DHT22;11787;52.018;8.570;2023-09-19T14:40:20;20.20;99.90
23237;DHT22;11787;52.018;8.570;2023-09-19T14:42:47;20.10;99.90
23237;DHT22;11787;52.018;8.570;2023-09-19T14:45:13;20.10;99.90
23237;DHT22;11787;52.018;8.570;2023-09-19T14:47:43;20.20;99.90
23237;DHT22;11787;52.018;8.570;2023-09-19T14:50:09;20.30;99.90
23237;DHT22;11787;52.018;8.570;2023-09-19T14:52:35;20.30;99.90
23237;DHT22;11787;52.018;8.570;2023-09-19T14:55:01;20.20;99.90
23237;DHT22;11787;52.018;8.570;2023-09-19T14:57:27;20.20;99.90
23237;DHT22;11787;52.018;8.570;2023-09-19T14:59:52;20.10;99.90
23237;DHT22;11787;52.018;8.570;2023-09-19T15:02:18;20.10;99.90
23237;DHT22;11787;52.018;8.570;2023-09-19T15:04:44;19.90;99.90
23237;DHT22;11787;52.018;8.570;2023-09-19T15:07:12;19.80;99.90
23237;DHT22;11787;52.018;8.570;2023-09-19T15:09:37;19.80;99.90
23237;DHT22;11787;52.018;8.570;2023-09-19T15:12:03;19.80;99.90
23237;DHT22;11787;52.018;8.570;2023-09-19T15:14:29;19.80;99.90
23237;DHT22;11787;52.018;8.570;2023-09-19T15:16:57;19.80;99.90
23237;DHT22;11787;52.018;8.570;2023-09-19T15:19:22;19.80;99.90
23237;DHT22;11787;52.018;8.570;2023-09-19T15:21:48;19.80;99.90
23237;DHT22;11787;52.018;8.570;2023-09-19T15:24:14;19.80;99.90
23237;DHT22;11787;52.018;8.570;2023-09-19T15:26:40;19.80;99.90
23237;DHT22;11787;52.018;8.570;2023-09-19T15:29:08;19.80;99.90
23237;DHT22;11787;52.018;8.570;2023-09-19T15:31:34;19.80;99.90
23237;DHT22;11787;52.018;8.570;2023-09-19T15:34:02;19.80;99.90
23237;DHT22;11787;52.018;8.570;2023-09-19T15:36:27;19.70;99.90
23237;DHT22;11787;52.018;8.570;2023-09-19T15:39:00;19.70;99.90
23237;DHT22;11787;52.018;8.570;2023-09-19T15:41:27;19.70;99.90
23237;DHT22;11787;52.018;8.570;2023-09-19T15:43:52;19.60;99.90
23237;DHT22;11787;52.018;8.570;2023-09-19T15:46:18;19.60;99.90
23237;DHT22;11787;52.018;8.570;2023-09-19T15:48:44;19.60;99.90
23237;DHT22;11787;52.018;8.570;2023-09-19T15:51:11;19.60;99.90
23237;DHT22;11787;52.018;8.570;2023-09-19T15:53:46;19.60;99.90
23237;DHT22;11787;52.018;8.570;2023-09-19T15:56:12;19.60;99.90
23237;DHT22;11787;52.018;8.570;2023-09-19T15:58:39;19.60;99.90
23237;DHT22;11787;52.018;8.570;2023-09-19T16:01:05;19.60;99.90
23237;DHT22;11787;52.018;8.570;2023-09-19T16:03:37;19.60;99.90
23237;DHT22;11787;52.018;8.570;2023-09-19T16:06:13;19.50;99.90
23237;DHT22;11787;52.018;8.570;2023-09-19T16:08:42;19.40;99.90
23237;DHT22;11787;52.018;8.570;2023-09-19T16:11:07;19.40;99.90
23237;DHT22;11787;52.018;8.570;2023-09-19T16:13:34;19.30;99.90
23237;DHT22;11787;52.018;8.570;2023-09-19T16:16:00;19.30;99.90
23237;DHT22;11787;52.018;8.570;2023-09-19T16:18:25;19.30;99.90
23237;DHT22;11787;52.018;8.570;2023-09-19T16:20:51;19.30;99.90
23237;DHT22;11787;52.018;8.570;2023-09-19T16:23:17;19.30;99.90
23237;DHT22;11787;52.018;8.570;2023-09-19T16:25:43;19.30;99.90